sensor_id;sensor_type;location;lat;lon;timestamp;temperature;humidity
51021;DHT22;38907;45.562;8.856;2022-12-17T00:04:08;5.50;99.90
51021;DHT22;38907;45.562;8.856;2022-12-17T00:09:28;5.60;99.90
51021;DHT22;38907;45.562;8.856;2022-12-17T00:14:48;5.60;99.90
51021;DHT22;38907;45.562;8.856;2022-12-17T00:20:08;5.50;99.90
51021;DHT22;38907;45.562;8.856;2022-12-17T00:25:28;5.40;99.90
51021;DHT22;38907;45.562;8.856;2022-12-17T00:30:50;5.40;99.90
51021;DHT22;38907;45.562;8.856;2022-12-17T00:36:09;5.40;99.90
51021;DHT22;38907;45.562;8.856;2022-12-17T00:41:30;5.40;99.90
51021;DHT22;38907;45.562;8.856;2022-12-17T00:46:50;5.50;99.90
51021;DHT22;38907;45.562;8.856;2022-12-17T00:52:09;5.50;99.90
51021;DHT22;38907;45.562;8.856;2022-12-17T00:57:29;5.60;99.90
51021;DHT22;38907;45.562;8.856;2022-12-17T01:02:49;5.60;99.90
51021;DHT22;38907;45.562;8.856;2022-12-17T01:08:09;5.50;99.90
51021;DHT22;38907;45.562;8.856;2022-12-17T01:13:30;5.60;99.90
51021;DHT22;38907;45.562;8.856;2022-12-17T01:18:51;5.70;99.90
51021;DHT22;38907;45.562;8.856;2022-12-17T01:24:11;5.60;99.90
51021;DHT22;38907;45.562;8.856;2022-12-17T01:29:31;5.60;99.90
51021;DHT22;38907;45.562;8.856;2022-12-17T01:34:51;5.60;99.90
51021;DHT22;38907;45.562;8.856;2022-12-17T01:40:10;5.60;99.90
51021;DHT22;38907;45.562;8.856;2022-12-17T01:45:35;5.80;99.90
51021;DHT22;38907;45.562;8.856;2022-12-17T01:50:55;5.70;99.90
51021;DHT22;38907;45.562;8.856;2022-12-17T01:56:16;5.60;99.90
51021;DHT22;38907;45.562;8.856;2022-12-17T02:01:37;5.70;99.90
51021;DHT22;38907;45.562;8.856;2022-12-17T02:07:10;5.70;99.90
51021;DHT22;38907;45.562;8.856;2022-12-17T02:12:36;5.60;99.90
51021;DHT22;38907;45.562;8.856;2022-12-17T02:18:03;5.50;99.90
51021;DHT22;38907;45.562;8.856;2022-12-17T02:23:33;5.40;99.90
51021;DHT22;38907;45.562;8.856;2022-12-17T02:28:56;5.30;99.90
51021;DHT22;38907;45.562;8.856;2022-12-17T02:34:16;5.30;99.90
51021;DHT22;38907;45.562;8.856;2022-12-17T02:39:35;5.30;99.90
51021;DHT22;38907;45.562;8.856;2022-12-17T02:44:56;5.50;99.90
51021;DHT22;38907;45.562;8.856;2022-12-17T02:50:16;5.50;99.90
51021;DHT22;38907;45.562;8.856;2022-12-17T02:55:36;5.50;99.90
51021;DHT22;38907;45.562;8.856;2022-12-17T03:00:56;5.60;99.90
51021;DHT22;38907;45.562;8.856;2022-12-17T03:06:16;5.60;99.90
51021;DHT22;38907;45.562;8.856;2022-12-17T03:11:35;5.60;99.90
51021;DHT22;38907;45.562;8.856;2022-12-17T03:16:56;5.60;99.90
51021;DHT22;38907;45.562;8.856;2022-12-17T03:22:16;5.60;99.90
51021;DHT22;38907;45.562;8.856;2022-12-17T03:27:35;5.60;99.90
51021;DHT22;38907;45.562;8.856;2022-12-17T03:32:55;5.70;99.90
51021;DHT22;38907;45.562;8.856;2022-12-17T03:38:15;5.70;99.90
51021;DHT22;38907;45.562;8.856;2022-12-17T03:43:34;5.70;99.90
51021;DHT22;38907;45.562;8.856;2022-12-17T03:48:55;5.70;99.90
51021;DHT22;38907;45.562;8.856;2022-12-17T03:54:14;5.70;99.90
51021;DHT22;38907;45.562;8.856;2022-12-17T03:59:33;5.60;99.90
51021;DHT22;38907;45.562;8.856;2022-12-17T04:04:54;5.60;99.90
51021;DHT22;38907;45.562;8.856;2022-12-17T04:10:13;5.60;99.90
51021;DHT22;38907;45.562;8.856;2022-12-17T04:15:32;5.70;99.90
51021;DHT22;38907;45.562;8.856;2022-12-17T04:20:53;5.60;99.90
51021;DHT22;38907;45.562;8.856;2022-12-17T04:26:12;5.70;99.90
51021;DHT22;38907;45.562;8.856;2022-12-17T04:31:31;5.60;99.90
51021;DHT22;38907;45.562;8.856;2022-12-17T04:36:52;5.60;99.90
51021;DHT22;38907;45.562;8.856;2022-12-17T04:42:11;5.60;99.90
51021;DHT22;38907;45.562;8.856;2022-12-17T04:47:30;5.70;99.90
51021;DHT22;38907;45.562;8.856;2022-12-17T04:52:58;5.70;99.90
51021;DHT22;38907;45.562;8.856;2022-12-17T04:58:18;5.70;99.90
51021;DHT22;38907;45.562;8.856;2022-12-17T05:03:37;5.70;99.90
51021;DHT22;38907;45.562;8.856;2022-12-17T05:08:57;5.70;99.90
51021;DHT22;38907;45.562;8.856;2022-12-17T05:14:17;5.60;99.90
51021;DHT22;38907;45.562;8.856;2022-12-17T05:19:36;5.60;99.90
51021;DHT22;38907;45.562;8.856;2022-12-17T05:24:57;5.60;99.90
51021;DHT22;38907;45.562;8.856;2022-12-17T05:30:16;5.50;99.90
51021;DHT22;38907;45.562;8.856;2022-12-17T05:35:35;5.50;99.90
51021;DHT22;38907;45.562;8.856;2022-12-17T05:40:57;5.40;99.90
51021;DHT22;38907;45.562;8.856;2022-12-17T05:46:24;5.20;99.90
51021;DHT22;38907;45.562;8.856;2022-12-17T05:51:44;5.30;99.90
51021;DHT22;38907;45.562;8.856;2022-12-17T05:57:04;5.40;99.90
51021;DHT22;38907;45.562;8.856;2022-12-17T06:02:23;5.50;99.90
51021;DHT22;38907;45.562;8.856;2022-12-17T06:07:43;5.60;99.90
51021;DHT22;38907;45.562;8.856;2022-12-17T06:13:03;5.50;99.90
51021;DHT22;38907;45.562;8.856;2022-12-17T06:18:22;5.50;99.90
51021;DHT22;38907;45.562;8.856;2022-12-17T06:23:42;5.50;99.90
51021;DHT22;38907;45.562;8.856;2022-12-17T06:29:02;5.50;99.90
51021;DHT22;38907;45.562;8.856;2022-12-17T06:34:21;5.50;99.90
51021;DHT22;38907;45.562;8.856;2022-12-17T06:39:40;5.50;99.90
51021;DHT22;38907;45.562;8.856;2022-12-17T06:45:01;5.50;99.90
51021;DHT22;38907;45.562;8.856;2022-12-17T06:50:20;5.50;99.90
51021;DHT22;38907;45.562;8.856;2022-12-17T06:55:39;5.50;99.90
51021;DHT22;38907;45.562;8.856;2022-12-17T07:01:00;5.30;99.90
51021;DHT22;38907;45.562;8.856;2022-12-17T07:06:28;5.40;99.90
51021;DHT22;38907;45.562;8.856;2022-12-17T07:11:50;5.30;99.90
51021;DHT22;38907;45.562;8.856;2022-12-17T07:17:10;5.30;99.90
51021;DHT22;38907;45.562;8.856;2022-12-17T07:22:30;5.30;99.90
51021;DHT22;38907;45.562;8.856;2022-12-17T07:27:52;5.30;99.90
51021;DHT22;38907;45.562;8.856;2022-12-17T07:33:13;5.30;99.90
51021;DHT22;38907;45.562;8.856;2022-12-17T07:38:33;5.30;99.90
51021;DHT22;38907;45.562;8.856;2022-12-17T07:43:52;5.20;99.90
51021;DHT22;38907;45.562;8.856;2022-12-17T07:49:21;5.20;99.90
51021;DHT22;38907;45.562;8.856;2022-12-17T07:54:43;5.10;99.90
51021;DHT22;38907;45.562;8.856;2022-12-17T08:00:03;5.00;99.90
51021;DHT22;38907;45.562;8.856;2022-12-17T08:05:24;5.10;99.90
51021;DHT22;38907;45.562;8.856;2022-12-17T08:10:43;5.00;99.90
51021;DHT22;38907;45.562;8.856;2022-12-17T08:16:07;5.00;99.90
51021;DHT22;38907;45.562;8.856;2022-12-17T08:21:28;5.10;99.90
51021;DHT22;38907;45.562;8.856;2022-12-17T08:26:48;5.10;99.90
51021;DHT22;38907;45.562;8.856;2022-12-17T08:32:07;5.10;99.90
51021;DHT22;38907;45.562;8.856;2022-12-17T08:37:28;5.10;99.90
51021;DHT22;38907;45.562;8.856;2022-12-17T08:42:55;5.20;99.90
51021;DHT22;38907;45.562;8.856;2022-12-17T08:48:15;5.10;99.90
51021;DHT22;38907;45.562;8.856;2022-12-17T08:53:35;5.10;99.90
51021;DHT22;38907;45.562;8.856;2022-12-17T08:58:55;5.10;99.90
51021;DHT22;38907;45.562;8.856;2022-12-17T09:04:14;5.10;99.90
51021;DHT22;38907;45.562;8.856;2022-12-17T09:09:34;5.30;99.90
51021;DHT22;38907;45.562;8.856;2022-12-17T09:14:54;5.30;99.90
51021;DHT22;38907;45.562;8.856;2022-12-17T09:20:13;5.30;99.90
51021;DHT22;38907;45.562;8.856;2022-12-17T09:25:34;5.30;99.90
51021;DHT22;38907;45.562;8.856;2022-12-17T09:30:57;5.30;99.90
51021;DHT22;38907;45.562;8.856;2022-12-17T09:36:17;5.30;99.90
51021;DHT22;38907;45.562;8.856;2022-12-17T09:41:44;5.20;99.90
51021;DHT22;38907;45.562;8.856;2022-12-17T09:47:17;5.30;99.90
51021;DHT22;38907;45.562;8.856;2022-12-17T09:52:40;5.40;99.90
51021;DHT22;38907;45.562;8.856;2022-12-17T09:58:02;5.50;99.90
51021;DHT22;38907;45.562;8.856;2022-12-17T10:03:22;5.50;99.90
51021;DHT22;38907;45.562;8.856;2022-12-17T10:08:43;5.50;99.90
51021;DHT22;38907;45.562;8.856;2022-12-17T10:14:11;5.50;99.90
51021;DHT22;38907;45.562;8.856;2022-12-17T10:19:35;5.40;99.90
51021;DHT22;38907;45.562;8.856;2022-12-17T10:24:55;5.40;99.90
51021;DHT22;38907;45.562;8.856;2022-12-17T10:30:16;5.40;99.90
51021;DHT22;38907;45.562;8.856;2022-12-17T10:45:58;5.70;99.90
51021;DHT22;38907;45.562;8.856;2022-12-17T10:51:19;5.60;99.90
51021;DHT22;38907;45.562;8.856;2022-12-17T10:56:40;5.50;99.90
51021;DHT22;38907;45.562;8.856;2022-12-17T11:02:01;5.50;99.90
51021;DHT22;38907;45.562;8.856;2022-12-17T11:07:24;5.60;99.90
51021;DHT22;38907;45.562;8.856;2022-12-17T11:12:49;5.80;99.90
51021;DHT22;38907;45.562;8.856;2022-12-17T11:18:16;6.00;99.90
51021;DHT22;38907;45.562;8.856;2022-12-17T11:23:39;5.70;99.90
51021;DHT22;38907;45.562;8.856;2022-12-17T11:29:00;5.60;99.90
51021;DHT22;38907;45.562;8.856;2022-12-17T11:34:28;5.80;99.90
51021;DHT22;38907;45.562;8.856;2022-12-17T11:39:56;5.60;99.90
51021;DHT22;38907;45.562;8.856;2022-12-17T11:45:27;5.80;99.90
51021;DHT22;38907;45.562;8.856;2022-12-17T11:50:52;6.00;99.90
51021;DHT22;38907;45.562;8.856;2022-12-17T11:56:18;6.10;99.90
51021;DHT22;38907;45.562;8.856;2022-12-17T12:01:42;6.20;99.90
51021;DHT22;38907;45.562;8.856;2022-12-17T12:07:09;6.30;99.90
51021;DHT22;38907;45.562;8.856;2022-12-17T12:12:45;6.40;99.90
51021;DHT22;38907;45.562;8.856;2022-12-17T12:18:09;6.30;99.90
51021;DHT22;38907;45.562;8.856;2022-12-17T12:23:40;6.10;99.90
51021;DHT22;38907;45.562;8.856;2022-12-17T12:29:11;6.20;99.90
51021;DHT22;38907;45.562;8.856;2022-12-17T12:34:38;6.40;99.90
51021;DHT22;38907;45.562;8.856;2022-12-17T12:40:04;6.40;99.90
51021;DHT22;38907;45.562;8.856;2022-12-17T12:45:39;6.40;99.90
51021;DHT22;38907;45.562;8.856;2022-12-17T12:51:08;6.60;99.90
51021;DHT22;38907;45.562;8.856;2022-12-17T12:56:34;6.70;99.90
51021;DHT22;38907;45.562;8.856;2022-12-17T13:01:54;6.90;99.90
51021;DHT22;38907;45.562;8.856;2022-12-17T13:07:21;6.90;99.90
51021;DHT22;38907;45.562;8.856;2022-12-17T13:12:32;7.10;99.90
51021;DHT22;38907;45.562;8.856;2022-12-17T13:17:40;7.20;99.90
51021;DHT22;38907;45.562;8.856;2022-12-17T13:22:49;7.20;99.90
51021;DHT22;38907;45.562;8.856;2022-12-17T13:27:58;7.20;99.90
51021;DHT22;38907;45.562;8.856;2022-12-17T13:33:21;7.30;99.90
51021;DHT22;38907;45.562;8.856;2022-12-17T13:38:40;7.40;99.90
51021;DHT22;38907;45.562;8.856;2022-12-17T13:43:48;7.40;99.90
51021;DHT22;38907;45.562;8.856;2022-12-17T13:48:55;7.50;99.90
51021;DHT22;38907;45.562;8.856;2022-12-17T13:54:00;7.50;99.90
51021;DHT22;38907;45.562;8.856;2022-12-17T13:59:04;7.40;99.90
51021;DHT22;38907;45.562;8.856;2022-12-17T14:04:19;7.40;99.90
51021;DHT22;38907;45.562;8.856;2022-12-17T14:09:25;7.40;99.90
51021;DHT22;38907;45.562;8.856;2022-12-17T14:14:34;7.30;99.90
51021;DHT22;38907;45.562;8.856;2022-12-17T14:19:41;7.10;99.90
51021;DHT22;38907;45.562;8.856;2022-12-17T14:24:44;7.00;99.90
51021;DHT22;38907;45.562;8.856;2022-12-17T14:29:48;7.00;99.90
51021;DHT22;38907;45.562;8.856;2022-12-17T14:34:51;6.90;99.90
51021;DHT22;38907;45.562;8.856;2022-12-17T14:39:56;7.00;99.90
51021;DHT22;38907;45.562;8.856;2022-12-17T14:45:04;6.80;99.90
51021;DHT22;38907;45.562;8.856;2022-12-17T14:50:25;6.80;99.90
51021;DHT22;38907;45.562;8.856;2022-12-17T14:55:34;6.70;99.90
51021;DHT22;38907;45.562;8.856;2022-12-17T15:00:40;6.80;99.90
51021;DHT22;38907;45.562;8.856;2022-12-17T15:05:46;6.80;99.90
51021;DHT22;38907;45.562;8.856;2022-12-17T15:10:51;6.80;99.90
51021;DHT22;38907;45.562;8.856;2022-12-17T15:15:54;6.80;99.90
51021;DHT22;38907;45.562;8.856;2022-12-17T15:20:57;6.70;99.90
51021;DHT22;38907;45.562;8.856;2022-12-17T15:26:00;6.60;99.90
51021;DHT22;38907;45.562;8.856;2022-12-17T15:31:05;6.50;99.90
51021;DHT22;38907;45.562;8.856;2022-12-17T15:36:09;6.40;99.90
51021;DHT22;38907;45.562;8.856;2022-12-17T15:41:11;6.30;99.90
51021;DHT22;38907;45.562;8.856;2022-12-17T15:46:32;6.20;99.90
51021;DHT22;38907;45.562;8.856;2022-12-17T15:51:34;6.10;99.90
51021;DHT22;38907;45.562;8.856;2022-12-17T15:56:36;6.10;99.90
51021;DHT22;38907;45.562;8.856;2022-12-17T16:01:40;6.00;99.90
51021;DHT22;38907;45.562;8.856;2022-12-17T16:06:42;5.90;99.90
51021;DHT22;38907;45.562;8.856;2022-12-17T16:11:43;5.90;99.90
51021;DHT22;38907;45.562;8.856;2022-12-17T16:18:38;5.90;99.90
51021;DHT22;38907;45.562;8.856;2022-12-17T16:23:40;5.90;99.90
51021;DHT22;38907;45.562;8.856;2022-12-17T16:28:42;5.80;99.90
51021;DHT22;38907;45.562;8.856;2022-12-17T16:33:45;6.10;99.90
51021;DHT22;38907;45.562;8.856;2022-12-17T16:38:49;6.40;99.90
51021;DHT22;38907;45.562;8.856;2022-12-17T16:43:51;6.30;99.90
51021;DHT22;38907;45.562;8.856;2022-12-17T16:48:55;6.30;99.90
51021;DHT22;38907;45.562;8.856;2022-12-17T16:53:57;6.40;99.90
51021;DHT22;38907;45.562;8.856;2022-12-17T16:59:01;6.50;99.90
51021;DHT22;38907;45.562;8.856;2022-12-17T17:04:06;6.50;99.90
51021;DHT22;38907;45.562;8.856;2022-12-17T17:09:09;6.50;99.90
51021;DHT22;38907;45.562;8.856;2022-12-17T17:14:11;6.60;99.90
51021;DHT22;38907;45.562;8.856;2022-12-17T17:19:14;6.60;99.90
51021;DHT22;38907;45.562;8.856;2022-12-17T17:24:17;6.70;99.90
51021;DHT22;38907;45.562;8.856;2022-12-17T17:29:21;6.70;99.90
51021;DHT22;38907;45.562;8.856;2022-12-17T17:34:24;6.70;99.90
51021;DHT22;38907;45.562;8.856;2022-12-17T17:39:26;6.60;99.90
51021;DHT22;38907;45.562;8.856;2022-12-17T17:44:31;6.50;99.90
51021;DHT22;38907;45.562;8.856;2022-12-17T17:49:34;6.70;99.90
51021;DHT22;38907;45.562;8.856;2022-12-17T17:54:36;6.80;99.90
51021;DHT22;38907;45.562;8.856;2022-12-17T17:59:40;6.50;99.90
51021;DHT22;38907;45.562;8.856;2022-12-17T18:04:43;6.60;99.90
51021;DHT22;38907;45.562;8.856;2022-12-17T18:09:45;6.70;99.90
51021;DHT22;38907;45.562;8.856;2022-12-17T18:14:47;6.80;99.90
51021;DHT22;38907;45.562;8.856;2022-12-17T18:19:50;6.90;99.90
51021;DHT22;38907;45.562;8.856;2022-12-17T18:24:52;6.90;99.90
51021;DHT22;38907;45.562;8.856;2022-12-17T18:29:54;7.00;99.90
51021;DHT22;38907;45.562;8.856;2022-12-17T18:34:57;7.10;99.90
51021;DHT22;38907;45.562;8.856;2022-12-17T18:39:59;7.10;99.90
51021;DHT22;38907;45.562;8.856;2022-12-17T18:45:02;7.10;99.90
51021;DHT22;38907;45.562;8.856;2022-12-17T18:50:06;7.20;99.90
51021;DHT22;38907;45.562;8.856;2022-12-17T18:55:08;7.10;99.90
51021;DHT22;38907;45.562;8.856;2022-12-17T19:00:11;7.20;99.90
51021;DHT22;38907;45.562;8.856;2022-12-17T19:05:15;7.30;99.90
51021;DHT22;38907;45.562;8.856;2022-12-17T19:10:17;7.30;99.90
51021;DHT22;38907;45.562;8.856;2022-12-17T19:15:19;7.20;99.90
51021;DHT22;38907;45.562;8.856;2022-12-17T19:20:22;7.20;99.90
51021;DHT22;38907;45.562;8.856;2022-12-17T19:25:24;7.30;99.90
51021;DHT22;38907;45.562;8.856;2022-12-17T19:30:26;7.20;99.90
51021;DHT22;38907;45.562;8.856;2022-12-17T19:35:29;7.30;99.90
51021;DHT22;38907;45.562;8.856;2022-12-17T19:40:33;7.30;99.90
51021;DHT22;38907;45.562;8.856;2022-12-17T19:45:35;7.30;99.90
51021;DHT22;38907;45.562;8.856;2022-12-17T19:50:38;7.30;99.90
51021;DHT22;38907;45.562;8.856;2022-12-17T19:55:40;7.30;99.90
51021;DHT22;38907;45.562;8.856;2022-12-17T20:00:42;7.30;99.90
51021;DHT22;38907;45.562;8.856;2022-12-17T20:05:45;7.40;99.90
51021;DHT22;38907;45.562;8.856;2022-12-17T20:10:47;7.40;99.90
51021;DHT22;38907;45.562;8.856;2022-12-17T20:15:58;7.50;99.90
51021;DHT22;38907;45.562;8.856;2022-12-17T20:21:03;7.50;99.90
51021;DHT22;38907;45.562;8.856;2022-12-17T20:26:07;7.50;99.90
51021;DHT22;38907;45.562;8.856;2022-12-17T20:31:10;7.50;99.90
51021;DHT22;38907;45.562;8.856;2022-12-17T20:36:15;7.60;99.90
51021;DHT22;38907;45.562;8.856;2022-12-17T20:41:19;7.50;99.90
51021;DHT22;38907;45.562;8.856;2022-12-17T20:46:23;7.50;99.90
51021;DHT22;38907;45.562;8.856;2022-12-17T20:51:28;7.60;99.90
51021;DHT22;38907;45.562;8.856;2022-12-17T20:56:32;7.50;99.90
51021;DHT22;38907;45.562;8.856;2022-12-17T21:01:34;7.60;99.90
51021;DHT22;38907;45.562;8.856;2022-12-17T21:06:39;7.60;99.90
51021;DHT22;38907;45.562;8.856;2022-12-17T21:11:42;7.60;99.90
51021;DHT22;38907;45.562;8.856;2022-12-17T21:16:46;7.60;99.90
51021;DHT22;38907;45.562;8.856;2022-12-17T21:21:49;7.70;99.90
51021;DHT22;38907;45.562;8.856;2022-12-17T21:26:51;7.70;99.90
51021;DHT22;38907;45.562;8.856;2022-12-17T21:31:53;7.70;99.90
51021;DHT22;38907;45.562;8.856;2022-12-17T21:36:56;7.70;99.90
51021;DHT22;38907;45.562;8.856;2022-12-17T21:41:58;7.70;99.90
51021;DHT22;38907;45.562;8.856;2022-12-17T21:47:18;7.70;99.90
51021;DHT22;38907;45.562;8.856;2022-12-17T21:52:24;7.70;99.90
51021;DHT22;38907;45.562;8.856;2022-12-17T21:57:25;7.60;99.90
51021;DHT22;38907;45.562;8.856;2022-12-17T22:02:27;7.60;99.90
51021;DHT22;38907;45.562;8.856;2022-12-17T22:07:31;7.60;99.90
51021;DHT22;38907;45.562;8.856;2022-12-17T22:12:33;7.60;99.90
51021;DHT22;38907;45.562;8.856;2022-12-17T22:17:52;7.70;99.90
51021;DHT22;38907;45.562;8.856;2022-12-17T22:22:57;7.70;99.90
51021;DHT22;38907;45.562;8.856;2022-12-17T22:27:59;7.70;99.90
51021;DHT22;38907;45.562;8.856;2022-12-17T22:33:02;7.60;99.90
51021;DHT22;38907;45.562;8.856;2022-12-17T22:38:08;7.50;99.90
51021;DHT22;38907;45.562;8.856;2022-12-17T22:43:10;7.50;99.90
51021;DHT22;38907;45.562;8.856;2022-12-17T22:48:32;7.40;99.90
51021;DHT22;38907;45.562;8.856;2022-12-17T22:53:36;7.40;99.90
51021;DHT22;38907;45.562;8.856;2022-12-17T22:58:39;7.40;99.90
51021;DHT22;38907;45.562;8.856;2022-12-17T23:03:41;7.20;99.90
51021;DHT22;38907;45.562;8.856;2022-12-17T23:08:44;7.20;99.90
51021;DHT22;38907;45.562;8.856;2022-12-17T23:13:46;7.20;99.90
51021;DHT22;38907;45.562;8.856;2022-12-17T23:18:49;7.20;99.90
51021;DHT22;38907;45.562;8.856;2022-12-17T23:23:54;7.20;99.90
51021;DHT22;38907;45.562;8.856;2022-12-17T23:28:57;7.10;99.90
51021;DHT22;38907;45.562;8.856;2022-12-17T23:34:01;7.00;99.90
51021;DHT22;38907;45.562;8.856;2022-12-17T23:39:05;7.00;99.90
51021;DHT22;38907;45.562;8.856;2022-12-17T23:44:07;6.90;99.90
51021;DHT22;38907;45.562;8.856;2022-12-17T23:49:08;7.00;99.90
51021;DHT22;38907;45.562;8.856;2022-12-17T23:54:12;7.10;99.90
51021;DHT22;38907;45.562;8.856;2022-12-17T23:59:14;7.00;99.90
